CSUN New Campus Station -PST Time - Most Recent Data on bottom of page




           Date/Time      Avg      Avg      Max     Wind      Avg      Max      Min      Avg      Avg    Total      Avg     Batt
                         Wind     Wind     Wind      Dir     Temp     Temp     Temp       RH      Bar     Rain    Solar     Volt
                      Spd MPH      Dir  Spd MPH   at Max    Deg_F    Deg_F    Deg_F        % Press_mb   Inches     W/m2      Min
--------------------------------------------------------------------------------------------------------------------------------
    04/27/2016 00:00      1.0       26      2.9      353     56.9     57.2     56.6       54     1012     0.00        0     13.4
    04/27/2016 00:15      0.9       45      2.7       45     56.6     56.8     56.4       56     1012     0.00        0     13.4
    04/27/2016 00:30      0.7       39      2.8       42     56.2     56.6     55.9       57     1012     0.00        0     13.5
    04/27/2016 00:45      1.5       35      3.1       39     55.9     56.2     55.6       59     1012     0.00        0     13.5
    04/27/2016 01:00      1.6       36      3.7       38     55.5     55.8     55.2       61     1012     0.00        0     13.5
    04/27/2016 01:15      2.2       52      5.1       33     55.3     55.5     55.1       62     1012     0.00        0     13.5
    04/27/2016 01:30      0.7       72      3.0       67     55.1     55.4     54.9       63     1012     0.00        0     13.5
    04/27/2016 01:45      0.2       58      2.4      103     54.9     55.2     54.6       64     1012     0.00        0     13.5
    04/27/2016 02:00      0.0        0      0.0       65     54.3     54.9     53.6       66     1011     0.00        0     13.5
    04/27/2016 02:15      0.0       32      1.3       39     53.4     53.7     53.2       67     1011     0.00        0     13.5
    04/27/2016 02:30      0.0        0      0.0       26     53.4     53.8     52.9       66     1011     0.00        0     13.5
    04/27/2016 02:45      0.1       37      1.8       36     52.7     53.0     52.3       68     1011     0.00        0     13.5
    04/27/2016 03:00      0.3       45      1.7       55     52.5     52.8     52.3       69     1011     0.00        0     13.5
    04/27/2016 03:15      0.3       31      1.8       45     52.5     52.8     52.2       70     1011     0.00        0     13.5
    04/27/2016 03:30      0.0       37      1.4       53     52.4     52.7     52.2       71     1011     0.00        0     13.5
    04/27/2016 03:45      0.0      342      1.4      339     52.2     52.5     51.9       72     1011     0.00        0     13.5
    04/27/2016 04:00      0.3       35      2.6       57     52.1     52.3     51.9       72     1011     0.00        0     13.5
    04/27/2016 04:15      0.7      358      2.6        0     52.4     52.6     52.1       69     1011     0.00        0     13.5
    04/27/2016 04:30      0.7      340      2.8      346     52.4     52.6     52.1       69     1011     0.00        0     13.5
    04/27/2016 04:45      0.2      351      2.6      342     52.2     52.5     52.0       69     1011     0.00        0     13.5
    04/27/2016 05:00      0.2      350      2.2      331     52.0     52.3     51.6       69     1011     0.00        0     13.5
    04/27/2016 05:15      0.1      338      1.3      342     51.9     52.2     51.6       68     1011     0.00        3     13.5
    04/27/2016 05:30      0.0        0      0.0      307     51.8     52.1     51.3       69     1011     0.00       11     13.5
    04/27/2016 05:45      0.0        0      0.0      310     51.4     51.7     51.2       70     1011     0.00       22     13.5
    04/27/2016 06:00      0.0      319      1.0      338     52.2     52.9     51.5       69     1011     0.00       42     13.5
    04/27/2016 06:15      0.0        0      0.0      311     53.1     53.7     52.6       68     1011     0.00       81     13.5
    04/27/2016 06:30      0.0        0      0.0      273     54.3     54.8     53.6       67     1011     0.00       94     13.5
    04/27/2016 06:45      0.2      245      1.2      292     55.4     56.5     54.6       65     1011     0.00      174     13.5
    04/27/2016 07:00      0.2      137      2.3      105     57.7     58.8     56.4       60     1011     0.00      267     13.4
    04/27/2016 07:15      1.5      131      4.5      147     58.9     59.5     58.3       59     1011     0.00      327     13.4
    04/27/2016 07:30      2.4      176      5.2      168     58.3     58.8     58.0       60     1011     0.00      379     13.4
    04/27/2016 07:45      2.1      201      4.9      178     58.7     59.4     58.2       59     1011     0.00      431     13.3
    04/27/2016 08:00      1.4      191      4.9      187     60.0     61.1     59.2       56     1011     0.00      480     13.3
    04/27/2016 08:15      2.0      196      6.9      203     60.0     61.0     59.4       55     1011     0.00      532     13.3
    04/27/2016 08:30      2.3      221      6.7      155     61.2     61.6     60.7       55     1011     0.00      577     13.3
    04/27/2016 08:45      2.6      229      5.9      250     62.1     62.6     61.4       49     1011     0.00      625     13.3
    04/27/2016 09:00      2.3      203      6.4      175     63.3     64.5     62.5       45     1011     0.00      668     13.3
    04/27/2016 09:15      1.9      201      6.0      121     64.7     65.1     64.2       43     1011     0.00      711     13.2
    04/27/2016 09:30      3.4      163      7.1      150     65.0     65.5     64.5       43     1010     0.00      749     13.2
    04/27/2016 09:45      4.9      157      8.9      162     65.1     66.3     64.3       39     1010     0.00      786     13.2
    04/27/2016 10:00      3.4      181      7.0      191     66.8     67.7     66.1       33     1010     0.00      816     13.2
    04/27/2016 10:15      3.4      149      9.8      165     67.7     68.9     67.0       32     1010     0.00      846     13.2
    04/27/2016 10:30      3.7      124      7.9      157     69.4     70.1     68.6       31     1010     0.00      872     13.2
    04/27/2016 10:45      2.6      244      6.6      202     69.3     69.8     68.8       31     1010     0.00      896     13.2
    04/27/2016 11:00      2.8      158      8.1      188     69.6     70.9     68.4       30     1010     0.00      918     13.2
    04/27/2016 11:15      4.5      184      9.1      175     70.7     71.5     70.0       30     1009     0.00      931     13.2
    04/27/2016 11:30      3.3      230      8.1      167     71.3     72.1     70.4       31     1009     0.00      927     13.2
    04/27/2016 11:45      5.1      123     10.8      143     71.3     71.9     70.7       33     1009     0.00      913     13.1
    04/27/2016 12:00      7.0      147     12.5      141     71.3     72.0     70.9       36     1009     0.00      929     13.1
    04/27/2016 12:15      6.0      123     12.3       96     71.8     72.5     71.2       36     1008     0.00      937     13.1
    04/27/2016 12:30      6.5      138     13.2      144     71.8     72.8     71.1       39     1008     0.00      960     13.1
    04/27/2016 12:45      5.1      125     12.8      148     71.5     72.2     70.9       34     1008     0.00      700     13.1
    04/27/2016 13:00      5.6      124     12.5      125     72.0     73.0     70.9       36     1008     0.00      726     13.1
    04/27/2016 13:15      5.9      175     13.8      178     72.4     73.4     71.7       36     1008     0.00      762     13.1
    04/27/2016 13:30      6.2      208     14.6      200     72.2     73.2     71.5       32     1008     0.00      912     13.1
    04/27/2016 13:45      5.5      214     11.4      192     72.8     73.5     72.1       30     1008     0.00      858     13.1
    04/27/2016 14:00      8.3      191     15.9      186     71.9     72.9     71.0       28     1008     0.00      835     13.1
    04/27/2016 14:15      7.3      198     15.3      213     72.8     73.8     71.8       25     1007     0.00      802     13.1
    04/27/2016 14:30      6.6      220     15.7      195     73.2     74.2     72.6       24     1007     0.00      766     13.1
    04/27/2016 14:45      7.1      221     17.4      189     72.8     73.5     71.8       23     1007     0.00      727     13.1
    04/27/2016 15:00      8.0      191     19.9      189     72.5     73.1     72.1       25     1007     0.00      686     13.1
    04/27/2016 15:15      7.7      194     15.2      201     72.3     72.8     71.2       27     1006     0.00      622     13.1
    04/27/2016 15:30     10.0      198     19.0      193     71.2     71.8     70.4       29     1006     0.00      598     13.1
    04/27/2016 15:45      7.5      217     17.7      231     70.8     71.5     70.3       31     1006     0.00      543     13.1
    04/27/2016 16:00      8.4      262     18.2      262     69.8     71.3     68.7       37     1006     0.00      493     13.1
    04/27/2016 16:15      6.1      235     13.0      196     68.1     69.4     67.1       43     1006     0.00      440     13.2
    04/27/2016 16:30      7.2      201     14.9      206     67.1     67.8     66.5       43     1006     0.00      391     13.2
    04/27/2016 16:45      8.0      210     14.7      200     66.0     67.4     65.3       47     1006     0.00      334     13.2
    04/27/2016 17:00      5.8      217     15.9      195     66.0     66.3     65.3       47     1006     0.00      236     13.2
    04/27/2016 17:15      7.2      206     14.8      191     65.3     66.3     64.1       52     1005     0.00      143     13.2
    04/27/2016 17:30      6.9      201     14.6      180     63.6     64.5     63.3       54     1005     0.00      119     13.2
    04/27/2016 17:45      5.3      190     11.1      151     63.3     63.8     63.0       54     1005     0.00       77     13.2
    04/27/2016 18:00      4.1      224      8.6      197     63.0     63.3     62.6       54     1005     0.00       35     13.3
    04/27/2016 18:15      3.3      260      9.4      252     62.4     62.9     61.9       56     1005     0.00       28     13.3
    04/27/2016 18:30      1.3      274      3.8      290     61.8     62.2     61.4       58     1005     0.00       12     13.3
    04/27/2016 18:45      1.2      235      4.3      239     61.0     61.6     60.7       60     1005     0.00        4     13.3
    04/27/2016 19:00      1.4      214      3.7      253     60.7     61.0     60.5       61     1005     0.00        0     13.3
    04/27/2016 19:15      0.7      262      3.3      269     60.8     61.1     60.5       59     1005     0.00        0     13.3
    04/27/2016 19:30      1.7      293      5.0      331     61.1     61.4     60.8       59     1005     0.00        0     13.3
    04/27/2016 19:45      0.7      286      3.2      287     60.8     61.1     60.6       58     1005     0.00        0     13.3
    04/27/2016 20:00      2.6      217      6.5      189     60.5     61.0     60.0       56     1005     0.00        0     13.3
    04/27/2016 20:15      2.3      225      7.9      194     59.8     60.2     59.4       56     1006     0.00        0     13.4
    04/27/2016 20:30      3.9      201      8.9      198     59.0     59.7     58.2       57     1006     0.00        0     13.3
    04/27/2016 20:45      3.5      197      7.4      193     57.9     58.5     57.4       57     1006     0.00        0     13.4
    04/27/2016 21:00      4.0      200      7.4      192     57.0     57.5     56.6       56     1006     0.00        0     13.4
    04/27/2016 21:15      3.9      191      6.4      188     56.3     56.8     56.0       57     1006     0.00        0     13.4
    04/27/2016 21:30      1.2      229      4.2      255     55.7     56.1     55.4       57     1006     0.00        0     13.4
    04/27/2016 21:45      2.8      252      8.0      251     55.8     56.0     55.5       55     1006     0.00        0     13.4
    04/27/2016 22:00      3.6      240      9.3      262     55.3     55.7     55.0       54     1006     0.00        0     13.4
    04/27/2016 22:15      2.7      269      7.3      254     55.1     55.4     54.8       55     1006     0.00        0     13.4
    04/27/2016 22:30      2.7      269      7.0      255     54.5     54.9     54.1       55     1006     0.00        0     13.4
    04/27/2016 22:45      2.6      266      7.6      256     53.9     54.3     53.6       57     1006     0.00        0     13.4
    04/27/2016 23:00      2.1      266      5.1      296     53.6     53.9     53.4       57     1006     0.00        0     13.5
    04/27/2016 23:15      2.3      244      5.5      199     53.2     53.6     52.7       59     1006     0.00        0     13.5
    04/27/2016 23:30      1.4      268      4.2      242     53.0     53.4     52.9       59     1006     0.00        0     13.5
    04/27/2016 23:45      1.2      307      3.7      339     53.4     53.8     53.0       58     1006     0.00        0     13.5
    04/28/2016 00:00      1.3      263      3.5      299     53.4     53.6     53.1       59     1006     0.00        0     13.5
    04/28/2016 00:15      2.7      357     10.1      329     54.5     55.3     53.1       44     1006     0.00        0     13.5
    04/28/2016 00:30      2.6      305      9.6      338     54.9     55.3     54.3       52     1006     0.00        0     13.5
    04/28/2016 00:45      2.7      240     10.1      245     53.0     54.4     52.1       59     1006     0.00        0     13.5
    04/28/2016 01:00      1.6      233      5.0      203     52.0     52.2     51.8       60     1006     0.00        0     13.5
    04/28/2016 01:15      2.4      254      5.1      248     51.7     52.1     51.4       60     1006     0.00        0     13.5
    04/28/2016 01:30      2.4      238      7.5      214     51.8     52.0     51.6       58     1006     0.00        0     13.5
    04/28/2016 01:45      2.6      176      6.4      180     52.5     53.2     51.9       58     1006     0.00        0     13.5
    04/28/2016 02:00      2.0      193      6.6      267     51.6     52.6     51.0       63     1006     0.00        0     13.5
    04/28/2016 02:15      3.1      194      8.9      177     51.5     52.1     51.0       64     1006     0.00        0     13.5
    04/28/2016 02:30      1.6      211      4.4      189     50.8     51.2     50.5       64     1006     0.00        0     13.5
    04/28/2016 02:45      2.4      211      5.9      185     50.6     51.0     50.2       65     1006     0.00        0     13.5
    04/28/2016 03:00      2.9      252      6.1      263     50.2     50.5     49.9       66     1006     0.00        0     13.5
    04/28/2016 03:15      3.7      238     12.1      260     50.4     51.0     49.4       67     1006     0.00        0     13.5
    04/28/2016 03:30      2.3      158      6.7       70     49.5     49.9     49.2       67     1006     0.00        0     13.5
    04/28/2016 03:45      1.0      308      4.5      337     49.5     49.9     49.2       66     1006     0.00        0     13.5
    04/28/2016 04:00      1.6      152      4.7      156     49.6     49.9     49.3       67     1007     0.00        0     13.5
    04/28/2016 04:15      2.3      211      5.8      193     49.1     49.4     48.7       68     1007     0.00        0     13.5
    04/28/2016 04:30      2.7      244      7.0      246     48.9     49.2     48.7       68     1007     0.00        0     13.6
    04/28/2016 04:45      1.0      286      3.1      131     48.9     49.3     48.5       68     1007     0.00        0     13.6
    04/28/2016 05:00      0.6      355      2.5      340     48.6     48.9     48.3       68     1007     0.00        0     13.6
    04/28/2016 05:15      1.5      179      5.4      191     47.9     48.5     47.5       70     1007     0.00        3     13.6
    04/28/2016 05:30      0.8      121      2.3      146     48.4     48.6     48.1       69     1008     0.00        9     13.6
    04/28/2016 05:45      1.5      144      3.2      135     48.5     49.0     48.3       69     1008     0.00       23     13.6
    04/28/2016 06:00      1.0      170      3.5      145     49.0     49.2     48.8       68     1008     0.00       19     13.6
    04/28/2016 06:15      0.3      161      3.3      180     49.5     50.6     48.9       66     1008     0.00       99     13.6
    04/28/2016 06:30      1.3      156      3.2      163     51.3     52.1     50.5       61     1009     0.00      186     13.5
    04/28/2016 06:45      1.1      189      2.9      105     52.8     53.4     51.9       57     1009     0.00      235     13.5
    04/28/2016 07:00      0.9      197      2.9      249     53.6     54.1     53.0       55     1009     0.00      286     13.4
    04/28/2016 07:15      2.4      197      6.0      195     54.7     55.4     53.9       54     1009     0.00      345     13.4
    04/28/2016 07:30      1.9      165      4.8      158     56.0     57.5     54.3       50     1009     0.00      395     13.4
    04/28/2016 07:45      1.2      210      3.4      181     57.2     57.9     56.8       48     1009     0.00      446     13.4
    04/28/2016 08:00      2.0      184      5.0      193     57.7     58.4     57.0       46     1009     0.00      498     13.3
    04/28/2016 08:15      2.9      192      6.0      193     58.5     59.1     57.9       46     1009     0.00      547     13.3
    04/28/2016 08:30      2.4      180      5.3      175     60.1     60.8     58.8       42     1009     0.00      597     13.3
    04/28/2016 08:45      3.4      183      8.3      186     60.9     61.8     60.1       41     1009     0.00      643     13.3
    04/28/2016 09:00      3.0      189      8.8      188     61.5     62.3     60.8       40     1009     0.00      687     13.3
    04/28/2016 09:15      4.7      173      7.7      144     62.7     63.6     62.0       36     1009     0.00      729     13.3
    04/28/2016 09:30      3.7      181      7.6      147     63.8     64.3     63.1       33     1009     0.00      765     13.2
    04/28/2016 09:45      4.1      196      8.4      203     65.0     65.8     64.1       33     1009     0.00      801     13.2
    04/28/2016 10:00      3.6      188      7.8      175     65.8     66.3     65.0       31     1009     0.00      836     13.2
    04/28/2016 10:15      4.6      179      8.9      177     66.1     66.8     65.1       30     1009     0.00      864     13.2
    04/28/2016 10:30      3.7      173      9.7      214     66.5     67.3     65.8       30     1009     0.00      888     13.2
    04/28/2016 10:45      4.7      219     10.7      195     68.1     68.7     67.4       29     1009     0.00      908     13.2
    04/28/2016 11:00      4.6      179      9.8      193     68.2     68.8     67.5       28     1009     0.00      927     13.2
    04/28/2016 11:15      1.8      201      8.4      298     69.4     70.5     68.2       25     1009     0.00      942     13.2
    04/28/2016 11:30      3.2      236     12.6      214     70.2     70.8     69.7       26     1008     0.00      952     13.2
    04/28/2016 11:45      5.7      161     10.9      196     71.3     71.9     70.1       29     1008     0.00      936     13.2
    04/28/2016 12:00      4.2      183     12.4      175     71.5     72.3     70.8       30     1008     0.00      985     13.2
    04/28/2016 12:15      8.1      156     19.0      184     70.0     72.0     68.2       31     1008     0.00      578     13.2
    04/28/2016 12:30      6.2      137     12.7      144     68.1     68.6     67.6       32     1008     0.00      241     13.2
    04/28/2016 12:45      6.9      156     15.3      170     68.5     70.7     67.2       30     1008     0.00      855     13.2
    04/28/2016 13:00      7.4      147     15.8      178     69.9     71.2     69.2       30     1008     0.00      802     13.2
    04/28/2016 13:15      7.1      150     13.6      142     69.6     70.6     68.2       31     1008     0.00      406     13.2
    04/28/2016 13:30      5.5      126     12.4      140     69.5     70.8     68.2       29     1008     0.00      728     13.2
    04/28/2016 13:45      6.4      144     12.1      154     71.5     72.2     69.6       28     1008     0.00      829     13.2
    04/28/2016 14:00      4.9      105     11.8      103     70.7     71.8     69.6       27     1008     0.00      853     13.1
    04/28/2016 14:15      5.4      109     11.3       71     71.8     72.8     71.0       27     1008     0.00      833     13.1
    04/28/2016 14:30      5.3      124     10.1      147     71.4     72.0     71.0       26     1008     0.00      684     13.1
    04/28/2016 14:45      6.0      106     13.7       91     71.2     71.9     70.5       27     1008     0.00      755     13.1
    04/28/2016 15:00      4.9      113     11.4       88     72.2     72.8     71.7       27     1008     0.00      762     13.1
    04/28/2016 15:15      3.2      170      9.3      211     71.0     71.7     70.4       31     1008     0.00      674     13.1
    04/28/2016 15:30      4.0      244     10.7      252     71.8     72.8     70.5       30     1008     0.00      602     13.1
    04/28/2016 15:45      3.8      256      9.0      223     71.4     71.9     70.6       31     1009     0.00      555     13.1
    04/28/2016 16:00      2.5      232      7.1      247     71.3     71.8     70.7       31     1009     0.00      510     13.1
    04/28/2016 16:15      1.9      304      5.4      235     71.6     72.0     71.1       32     1009     0.00      444     13.1
    04/28/2016 16:30      3.7      158      9.7      101     70.8     71.5     69.7       35     1009     0.00      390     13.1
    04/28/2016 16:45      5.4       92     11.3       91     68.9     69.7     68.4       39     1009     0.00      350     13.1
    04/28/2016 17:00      5.0       92     12.3       96     67.9     68.9     67.1       41     1009     0.00      283     13.1
    04/28/2016 17:15      5.9       82     11.6       77     66.9     67.4     66.1       41     1009     0.00      223     13.2
    04/28/2016 17:30      5.3       89      9.5       89     66.2     66.5     65.9       43     1009     0.00      174     13.2
    04/28/2016 17:45      4.1       98      9.2       82     65.5     66.2     64.3       48     1009     0.00      122     13.2
    04/28/2016 18:00      4.5      109      8.8      135     63.6     64.5     62.6       53     1009     0.00       79     13.2
    04/28/2016 18:15      2.5      107      7.0       83     62.3     62.8     61.8       56     1009     0.00       31     13.2
    04/28/2016 18:30      3.7       89      7.5       71     61.3     62.1     60.9       59     1010     0.00       12     13.3
    04/28/2016 18:45      3.0       89      9.1       90     60.4     61.2     59.4       62     1010     0.00        4     13.3
    04/28/2016 19:00      4.0       87     10.2       55     59.3     59.9     58.7       65     1010     0.00        0     13.3
    04/28/2016 19:15      2.8      104      8.0       78     58.5     58.9     57.9       67     1010     0.00        0     13.3
    04/28/2016 19:30      1.8      113      6.0      106     57.7     58.1     57.2       69     1011     0.00        0     13.4
    04/28/2016 19:45      4.4       87      8.0       90     57.3     57.5     56.9       70     1011     0.00        0     13.4
    04/28/2016 20:00      3.7       81      6.8       92     56.7     57.1     56.4       71     1011     0.00        0     13.4
    04/28/2016 20:15      1.9       58      5.1       89     56.5     56.8     56.2       71     1011     0.00        0     13.4
    04/28/2016 20:30      3.5       77      6.4       61     56.5     56.8     56.3       72     1012     0.00        0     13.4
    04/28/2016 20:45      3.3       85      6.7       75     56.0     56.5     55.5       74     1012     0.00        0     13.4
    04/28/2016 21:00      4.0       77      7.5       65     55.4     55.7     55.0       75     1012     0.00        0     13.4
    04/28/2016 21:15      3.2       79      6.5       96     55.2     55.4     54.8       76     1013     0.00        0     13.4
    04/28/2016 21:30      2.5       89      5.0       70     55.0     55.2     54.8       76     1013     0.00        0     13.4
    04/28/2016 21:45      2.2       93      5.7       96     54.8     55.1     54.5       77     1013     0.00        0     13.4
    04/28/2016 22:00      2.3       82      5.1       56     54.5     54.8     54.4       78     1013     0.00        0     13.4
    04/28/2016 22:15      2.1       73      4.3       68     54.4     54.6     54.2       78     1013     0.00        0     13.5
    04/28/2016 22:30      2.0       65      4.3       66     54.3     54.5     54.1       77     1013     0.00        0     13.5
    04/28/2016 22:45      2.4       50      4.9       42     54.3     54.5     54.1       77     1013     0.00        0     13.5
    04/28/2016 23:00      2.4       45      5.0       49     54.5     54.6     54.2       76     1013     0.00        0     13.5
    04/28/2016 23:15      1.8       56      4.2       39     54.5     54.7     54.3       76     1013     0.00        0     13.5
    04/28/2016 23:30      0.9       69      2.5       46     54.5     54.7     54.1       76     1013     0.00        0     13.5
    04/28/2016 23:45      0.5       83      2.4       61     54.3     54.6     53.7       76     1013     0.00        0     13.5
    04/29/2016 00:00      0.0      300      0.7      294     53.5     54.0     53.0       78     1013     0.00        0     13.5
    04/29/2016 00:15      0.1      183      1.3      298     52.9     53.2     52.6       80     1013     0.00        0     13.5
    04/29/2016 00:30      0.5      285      1.4      298     53.0     53.2     52.8       80     1014     0.00        0     13.5
    04/29/2016 00:45      0.3      312      1.5      340     52.9     53.1     52.7       80     1014     0.00        0     13.5
    04/29/2016 01:00      0.6       52      2.4       37     52.8     53.3     52.6       80     1013     0.00        0     13.5
    04/29/2016 01:15      0.3       30      2.5       40     53.3     53.6     52.9       78     1013     0.00        0     13.5
    04/29/2016 01:30      1.0       49      3.2       36     52.8     53.2     52.5       79     1013     0.00        0     13.5
    04/29/2016 01:45      1.5       41      2.7       50     53.4     53.7     53.0       77     1014     0.00        0     13.5
    04/29/2016 02:00      2.2       43      4.7       58     53.7     53.9     53.4       76     1014     0.00        0     13.5
    04/29/2016 02:15      2.1       45      4.0       37     53.6     53.9     53.4       76     1013     0.00        0     13.5
    04/29/2016 02:30      0.9       60      3.6       90     53.8     54.0     53.5       76     1014     0.00        0     13.5
    04/29/2016 02:45      0.8       58      2.1       57     53.8     54.0     53.7       76     1014     0.00        0     13.5
    04/29/2016 03:00      1.1       66      2.9       53     53.7     53.9     53.5       76     1014     0.00        0     13.5
    04/29/2016 03:15      1.3       43      3.8       63     53.6     53.9     53.3       77     1014     0.00        0     13.5
    04/29/2016 03:30      0.7       66      2.3       95     53.2     53.4     52.8       77     1014     0.00        0     13.5
    04/29/2016 03:45      0.4       72      2.8       80     52.7     53.1     52.5       79     1014     0.00        0     13.5
    04/29/2016 04:00      0.2       70      1.5       77     52.5     52.9     52.2       79     1014     0.00        0     13.5
    04/29/2016 04:15      0.0       26      1.1       53     52.0     52.4     51.5       81     1014     0.00        0     13.5
    04/29/2016 04:30      0.0       28      1.3       18     51.7     52.0     51.5       81     1014     0.00        0     13.5
    04/29/2016 04:45      0.0        0      0.0      100     51.4     51.8     50.9       81     1014     0.00        0     13.5
    04/29/2016 05:00      0.0       58      0.7       65     51.4     51.9     51.0       81     1014     0.00        0     13.5
    04/29/2016 05:15      0.5       45      2.4       39     51.9     52.4     51.6       80     1014     0.00        3     13.5
    04/29/2016 05:30      0.1       59      1.8       42     52.6     53.0     52.3       79     1014     0.00        9     13.5
    04/29/2016 05:45      0.3       47      1.8       36     53.2     53.7     52.8       77     1014     0.00       16     13.5
    04/29/2016 06:00      0.3       74      1.9      111     53.9     54.2     53.5       74     1015     0.00       27     13.5
    04/29/2016 06:15      1.0       79      3.7       83     54.2     54.5     54.0       73     1015     0.00       37     13.5
    04/29/2016 06:30      0.3       98      2.8       64     54.3     54.6     54.0       73     1015     0.00       51     13.5
    04/29/2016 06:45      1.6      120      5.3      149     54.7     55.1     54.5       72     1015     0.00       60     13.4
    04/29/2016 07:00      0.4      166      2.5      171     54.9     55.2     54.7       71     1015     0.00       88     13.4
    04/29/2016 07:15      1.1      104      4.8       89     55.0     55.4     54.7       70     1015     0.00      104     13.4
    04/29/2016 07:30      1.5       84      5.3       97     55.5     55.9     55.2       69     1015     0.00      160     13.4
    04/29/2016 07:45      1.3      122      3.6      123     55.8     56.1     55.5       68     1015     0.00      165     13.4
    04/29/2016 08:00      2.0      116      4.8       89     56.3     56.6     56.0       69     1015     0.00      213     13.4
    04/29/2016 08:15      1.2      100      5.8       96     57.0     57.5     56.5       64     1016     0.00      245     13.4
    04/29/2016 08:30      1.9       82      5.3       98     57.3     57.6     56.9       64     1016     0.00      220     13.3
    04/29/2016 08:45      1.1      333      4.6       39     56.8     57.2     56.5       64     1016     0.00      161     13.4
    04/29/2016 09:00      1.8      155      5.3       60     58.2     59.0     57.0       63     1016     0.00      463     13.4
    04/29/2016 09:15      1.5      271      3.5      189     59.9     60.7     59.0       59     1016     0.00      733     13.3
    04/29/2016 09:30      2.0      241      5.8      246     60.7     61.2     60.0       56     1016     0.00      662     13.3
    04/29/2016 09:45      1.9        6      5.8       76     62.0     63.8     60.2       53     1015     0.00      853     13.3
    04/29/2016 10:00      2.9       83      6.1      150     62.5     62.8     62.0       55     1015     0.00      784     13.2
    04/29/2016 10:15      3.4      193      6.9      156     62.9     63.8     62.1       55     1015     0.00      602     13.2
    04/29/2016 10:30      2.1      204      7.8      174     63.4     64.0     62.7       51     1015     0.00      824     13.2
    04/29/2016 10:45      3.1      116      7.5      197     64.4     65.3     63.6       53     1015     0.00      872     13.2
    04/29/2016 11:00      1.9      128      5.7      181     65.9     66.4     65.3       47     1015     0.00      912     13.2
    04/29/2016 11:15      3.5      145      7.3      142     66.6     67.6     66.0       46     1015     0.00      910     13.2
    04/29/2016 11:30      2.1      200      6.4      224     67.4     68.5     66.4       45     1015     0.00      931     13.2
    04/29/2016 11:45      3.1      167      8.5      167     68.6     69.3     67.3       45     1014     0.00      936     13.2
    04/29/2016 12:00      3.0       98      6.8       85     69.3     70.4     68.6       43     1014     0.00      924     13.2
    04/29/2016 12:15      4.6      134     12.5      146     69.2     69.8     68.4       44     1014     0.00      905     13.2
    04/29/2016 12:30      6.0      162     10.8      166     69.9     70.9     68.9       44     1014     0.00      926     13.2
    04/29/2016 12:45      3.8      142      8.5      181     70.5     71.2     69.8       43     1014     0.00      914     13.2
    04/29/2016 13:00      5.3      146     15.6      163     70.7     71.7     69.5       42     1013     0.00      879     13.1
    04/29/2016 13:15      4.9      124     10.7      154     70.1     70.5     69.6       43     1013     0.00      868     13.1
    04/29/2016 13:30      4.2      131      8.6      160     70.1     70.6     69.7       42     1013     0.00      829     13.1
    04/29/2016 13:45      4.9      116     11.0      178     70.8     71.9     70.0       45     1013     0.00      837     13.1
    04/29/2016 14:00      5.8      138     10.6      101     70.5     70.9     70.0       43     1013     0.00      808     13.1
    04/29/2016 14:15      5.2      133     11.2      133     70.2     71.0     69.6       44     1013     0.00      776     13.1
    04/29/2016 14:30      5.7      113     12.0       97     69.5     70.2     69.0       46     1013     0.00      739     13.1
    04/29/2016 14:45      5.3      132     11.9      146     69.8     70.9     68.9       44     1012     0.00      704     13.1
    04/29/2016 15:00      5.6      141     11.4      154     69.3     70.0     68.9       45     1012     0.00      662     13.1
    04/29/2016 15:15      4.8      118     11.1      133     69.2     69.8     68.6       44     1012     0.00      600     13.1
    04/29/2016 15:30      4.6      121     11.1      128     69.3     69.9     68.8       44     1012     0.00      575     13.1
    04/29/2016 15:45      4.8      120     11.5      123     69.0     69.6     68.4       44     1012     0.00      523     13.1
    04/29/2016 16:00      5.1      121     11.3      154     68.5     69.3     67.9       46     1012     0.00      469     13.1
    04/29/2016 16:15      4.4      113      8.6      124     67.8     68.4     67.4       46     1011     0.00      429     13.1
    04/29/2016 16:30      4.0      117      9.1       68     68.0     68.5     67.5       46     1011     0.00      377     13.1
    04/29/2016 16:45      4.9      131     10.8      150     67.4     67.9     67.0       47     1011     0.00      325     13.1
    04/29/2016 17:00      5.0      142      9.0      154     67.1     67.7     66.7       47     1011     0.00      273     13.2
    04/29/2016 17:15      3.5       97      9.8       89     66.2     66.8     65.8       49     1011     0.00      221     13.2
    04/29/2016 17:30      3.9      114      8.3      124     65.8     66.4     65.2       50     1011     0.00      169     13.2
    04/29/2016 17:45      3.5      131      8.7       88     65.2     65.5     64.8       50     1011     0.00      124     13.2
    04/29/2016 18:00      3.0      108      9.1       89     64.7     65.2     64.2       52     1011     0.00       79     13.2
    04/29/2016 18:15      3.0       99      7.0      105     63.7     64.3     63.1       53     1011     0.00       31     13.2
    04/29/2016 18:30      0.9      117      3.7      104     62.7     63.3     62.1       55     1011     0.00       12     13.3
    04/29/2016 18:45      1.2      194      4.8      257     61.9     62.4     61.3       57     1011     0.00        5     13.3
    04/29/2016 19:00      0.6      163      2.9      134     61.1     61.6     60.9       58     1011     0.00        1     13.3
    04/29/2016 19:15      0.4      317      2.4      308     60.9     61.1     60.5       58     1011     0.00        0     13.3
    04/29/2016 19:30      0.7      284      3.1      297     60.1     60.8     59.7       61     1011     0.00        0     13.3
    04/29/2016 19:45      0.2      243      2.6      237     59.4     59.9     58.8       64     1011     0.00        0     13.4
    04/29/2016 20:00      1.7       79      5.0       77     59.2     59.6     58.8       61     1011     0.00        0     13.4
    04/29/2016 20:15      1.0      106      4.3       72     59.1     59.5     58.6       62     1011     0.00        0     13.4
    04/29/2016 20:30      1.1       97      3.6      107     58.7     59.0     58.4       62     1011     0.00        0     13.4
    04/29/2016 20:45      1.9       95      4.8       80     58.4     58.6     58.0       64     1011     0.00        0     13.4
    04/29/2016 21:00      2.4       99      7.1       86     57.9     58.3     57.5       66     1011     0.00        0     13.4
    04/29/2016 21:15      1.8       92      5.4      101     57.4     57.7     57.2       67     1011     0.00        0     13.4
    04/29/2016 21:30      2.4       81      5.5      134     57.2     57.4     56.9       68     1011     0.00        0     13.4
    04/29/2016 21:45      1.5       99      5.0       98     56.8     57.2     56.5       70     1011     0.00        0     13.4
    04/29/2016 22:00      1.8       83      4.3       95     56.5     56.8     56.2       70     1011     0.00        0     13.4
    04/29/2016 22:15      1.5       82      4.2       76     56.2     56.5     56.0       71     1011     0.00        0     13.4
    04/29/2016 22:30      1.3       77      4.4       70     55.9     56.2     55.7       70     1011     0.00        0     13.4
    04/29/2016 22:45      0.4       85      2.4       62     55.7     56.0     55.5       71     1011     0.00        0     13.4
    04/29/2016 23:00      0.9       72      3.0       75     55.7     55.9     55.5       71     1011     0.00        0     13.4
    04/29/2016 23:15      1.0       78      3.6       74     55.6     55.9     55.3       72     1010     0.00        0     13.4
    04/29/2016 23:30      0.5      106      2.0       79     55.2     55.7     54.9       73     1010     0.00        0     13.4
    04/29/2016 23:45      0.5      127      3.0      134     54.8     55.2     54.3       74     1010     0.00        0     13.5
    04/30/2016 00:00      0.6      133      3.1      137     54.4     54.7     54.1       75     1010     0.00        0     13.5
    04/30/2016 00:15      0.3      142      2.1      150     53.9     54.5     53.5       76     1010     0.00        0     13.5
    04/30/2016 00:30      0.7      117      4.9       90     53.6     54.0     53.3       77     1010     0.00        0     13.5
    04/30/2016 00:45      1.8       99      7.0       95     54.3     54.5     53.9       76     1010     0.00        0     13.5
    04/30/2016 01:00      2.0       94      5.2       78     54.5     54.7     54.3       76     1010     0.00        0     13.4
    04/30/2016 01:15      1.5       96      5.0      114     54.6     54.9     54.3       76     1010     0.00        0     13.4
    04/30/2016 01:30      2.3       97      5.3      110     54.6     54.8     54.4       75     1009     0.00        0     13.4
    04/30/2016 01:45      2.2      101      7.0       92     54.4     54.6     54.1       75     1009     0.00        0     13.4
    04/30/2016 02:00      2.8      125      6.9       79     54.0     54.5     53.5       78     1009     0.00        0     13.4
    04/30/2016 02:15      2.2      151      5.7      146     53.5     53.6     53.2       79     1009     0.00        0     13.4
    04/30/2016 02:30      0.9      114      3.4       88     53.5     53.8     53.3       78     1009     0.00        0     13.4
    04/30/2016 02:45      2.6      101      6.6       93     53.7     54.0     53.5       78     1009     0.00        0     13.4
    04/30/2016 03:00      3.2       72      7.2       81     53.9     54.1     53.6       77     1009     0.00        0     13.4
    04/30/2016 03:15      3.2       80      8.9       79     54.0     54.3     53.8       77     1009     0.00        0     13.4
    04/30/2016 03:30      3.0       75      7.3      113     54.1     54.3     53.8       77     1009     0.00        0     13.4
    04/30/2016 03:45      2.5       56      5.7       56     54.2     54.3     54.0       77     1009     0.00        0     13.4
    04/30/2016 04:00      2.2       81      5.0       45     54.1     54.3     53.8       77     1009     0.00        0     13.4
    04/30/2016 04:15      1.3       78      3.4       94     54.0     54.1     53.7       78     1008     0.00        0     13.5
    04/30/2016 04:30      0.6       75      2.9       96     54.1     54.3     53.8       78     1008     0.00        0     13.4
    04/30/2016 04:45      0.7      165      3.5      157     54.1     54.3     53.8       78     1008     0.00        0     13.4
    04/30/2016 05:00      3.0      155      7.2      164     53.9     54.1     53.7       79     1008     0.00        0     13.4
    04/30/2016 05:15      1.2      111      3.6      148     53.9     54.2     53.7       79     1009     0.00        0     13.4
    04/30/2016 05:30      2.6      102      4.9       75     54.1     54.4     53.9       79     1009     0.00       13     13.4
    04/30/2016 05:45      2.0      190      4.2      155     53.9     54.2     53.5       80     1009     0.00       31     13.4
    04/30/2016 06:00      0.3      236      1.4      250     54.0     54.4     53.6       79     1009     0.00       59     13.5
    04/30/2016 06:15      0.9      189      2.9      166     54.4     54.6     54.1       78     1009     0.00       89     13.5
    04/30/2016 06:30      1.3      162      3.6      141     54.8     55.2     54.4       77     1009     0.00      110     13.4
    04/30/2016 06:45      0.9      144      3.2      145     55.7     56.6     54.9       73     1009     0.00      214     13.4
    04/30/2016 07:00      1.5      136      4.7      146     56.9     57.7     55.8       70     1009     0.00      282     13.4
    04/30/2016 07:15      2.3      145      5.1      165     57.0     57.5     56.4       71     1009     0.00      232     13.4
    04/30/2016 07:30      0.9      178      3.2      111     57.6     58.8     56.7       66     1009     0.00      380     13.4
    04/30/2016 07:45      1.2      154      3.8      159     59.2     60.4     58.5       61     1009     0.00      516     13.3
    04/30/2016 08:00      2.6      134      6.4      101     60.4     60.7     60.0       59     1009     0.00      524     13.3
    04/30/2016 08:15      2.3      189      5.3      157     59.7     60.4     59.1       60     1009     0.00      531     13.3
    04/30/2016 08:30      1.4      172      3.9      205     60.8     62.9     59.5       53     1009     0.00      579     13.3
    04/30/2016 08:45      1.6       94      4.3       75     62.7     63.3     62.2       53     1009     0.00      637     13.3
    04/30/2016 09:00      2.5      138      7.5      183     62.9     63.7     61.9       51     1008     0.00      680     13.2
    04/30/2016 09:15      2.7      165      5.9      161     64.0     65.0     62.9       50     1008     0.00      718     13.2
    04/30/2016 09:30      4.6      184      8.6      156     65.0     65.6     64.2       50     1008     0.00      762     13.2
    04/30/2016 09:45      5.3      195     10.0      188     65.5     66.3     64.4       45     1008     0.00      796     13.2
    04/30/2016 10:00      4.9      171      9.4      187     66.4     67.1     65.8       43     1008     0.00      834     13.2
    04/30/2016 10:15      4.9      189     11.1      187     67.1     68.1     66.1       41     1008     0.00      866     13.2
    04/30/2016 10:30      5.0      159     11.4      146     68.4     69.5     67.4       40     1008     0.00      899     13.2
    04/30/2016 10:45      4.3      134      8.7      155     69.2     70.5     68.2       35     1008     0.00      943     13.2
    04/30/2016 11:00      5.5      139     12.4      147     69.7     70.8     68.4       45     1008     0.00      806     13.2
    04/30/2016 11:15      6.7      147     12.7      145     68.8     69.4     67.8       47     1008     0.00      880     13.2
    04/30/2016 11:30      6.5      147     13.2      149     68.6     69.5     68.0       42     1008     0.00      976     13.2
    04/30/2016 11:45      5.0      137     13.0      155     69.0     70.3     68.1       43     1008     0.00      999     13.2
    04/30/2016 12:00      5.8      145     12.1      160     69.8     70.3     68.9       41     1007     0.00      933     13.2
    04/30/2016 12:15      4.5      130     12.7      134     68.2     70.1     66.7       46     1007     0.00      407     13.2
    04/30/2016 12:30      4.5      138      9.3      167     69.0     70.5     67.0       41     1007     0.00      997     13.2
    04/30/2016 12:45      3.3      110     11.4      103     69.8     70.5     68.9       41     1007     0.00      778     13.2
    04/30/2016 13:00      4.9      146     13.0      165     69.7     71.2     68.2       42     1007     0.00      381     13.1
    04/30/2016 13:15      3.5      101     10.0       84     68.9     69.9     68.2       41     1007     0.00      431     13.2
    04/30/2016 13:30      5.5      117     12.6       78     69.1     69.8     68.4       41     1007     0.00      502     13.2
    04/30/2016 13:45      5.0      113     12.0      126     69.5     70.1     68.7       39     1007     0.00      754     13.2
    04/30/2016 14:00      5.1      121     10.3      133     69.4     70.3     68.5       40     1007     0.00      731     13.2
    04/30/2016 14:15      5.4      117     11.6       81     68.9     69.6     68.0       39     1007     0.00      791     13.1
    04/30/2016 14:30      4.8      120     11.7       91     69.1     69.7     68.7       40     1007     0.00      753     13.1
    04/30/2016 14:45      5.6       94     10.7       84     69.0     69.6     68.4       39     1007     0.00      718     13.1
    04/30/2016 15:00      5.4      106     10.9       94     69.6     70.3     69.0       39     1007     0.00      671     13.1
    04/30/2016 15:15      4.4      103      9.8       79     69.5     70.3     69.0       37     1007     0.00      603     13.1
    04/30/2016 15:30      5.4      115     11.5       84     69.8     70.8     68.7       39     1007     0.00      580     13.1
    04/30/2016 15:45      4.6      122     12.9       96     69.5     69.9     69.0       37     1007     0.00      532     13.1
    04/30/2016 16:00      3.1      124      8.6      136     69.5     70.1     68.9       38     1007     0.00      487     13.1
    04/30/2016 16:15      1.8      118      6.7       95     68.7     69.3     68.0       40     1007     0.00      442     13.1
    04/30/2016 16:30      1.2      144      6.8       60     68.9     69.8     68.4       40     1007     0.00      407     13.1
    04/30/2016 16:45      2.8      311     10.6      305     68.8     69.6     68.2       35     1007     0.00      341     13.1
    04/30/2016 17:00      3.7      264      9.7      239     69.2     69.8     68.2       32     1007     0.00      288     13.1
    04/30/2016 17:15      5.0      276     11.4      260     68.6     69.5     68.0       33     1007     0.00      235     13.2
    04/30/2016 17:30      4.5      275      9.9      257     68.2     68.7     67.7       34     1007     0.00      186     13.2
    04/30/2016 17:45      4.1      271     12.1      245     67.6     68.0     67.3       35     1007     0.00      142     13.2
    04/30/2016 18:00      4.5      268     12.4      254     66.9     67.5     66.4       38     1007     0.00       88     13.2
    04/30/2016 18:15      3.8      271      8.6      262     66.1     66.6     65.6       39     1007     0.00       27     13.2
    04/30/2016 18:30      3.8      264      9.3      239     65.5     65.9     65.0       40     1007     0.00       14     13.3
    04/30/2016 18:45      3.0      262      7.8      252     64.8     65.3     64.4       40     1008     0.00        5     13.3
    04/30/2016 19:00      2.9      259      8.8      275     64.4     64.7     64.0       41     1008     0.00        0     13.3
    04/30/2016 19:15      1.1      116      4.0      111     63.8     64.3     63.0       50     1008     0.00        0     13.3
    04/30/2016 19:30      1.8      106      4.6       86     62.5     63.0     62.1       52     1008     0.00        0     13.3
    04/30/2016 19:45      2.3      107      5.7       85     61.9     62.3     61.6       53     1008     0.00        0     13.3
    04/30/2016 20:00      0.8      104      3.8       93     61.4     61.8     61.1       55     1008     0.00        0     13.3
    04/30/2016 20:15      1.4       89      4.0       85     61.0     61.3     60.8       55     1008     0.00        0     13.4
    04/30/2016 20:30      0.2       92      2.1       91     60.7     61.1     60.1       57     1008     0.00        0     13.4